sensor_id;sensor_type;location;lat;lon;timestamp;pressure;altitude;pressure_sealevel;temperature;humidity
74659;BME280;63186;51.204;6.536;2023-02-01T00:02:22;101650.94;;;4.61;100.00
74659;BME280;63186;51.204;6.536;2023-02-01T00:04:47;101655.66;;;4.66;100.00
74659;BME280;63186;51.204;6.536;2023-02-01T00:07:12;101655.38;;;4.67;100.00
74659;BME280;63186;51.204;6.536;2023-02-01T00:09:38;101649.69;;;4.69;100.00
74659;BME280;63186;51.204;6.536;2023-02-01T00:12:03;101644.56;;;4.72;100.00
74659;BME280;63186;51.204;6.536;2023-02-01T00:14:29;101654.13;;;4.75;100.00
74659;BME280;63186;51.204;6.536;2023-02-01T00:16:54;101644.03;;;4.75;100.00
74659;BME280;63186;51.204;6.536;2023-02-01T00:19:20;101632.91;;;4.77;100.00
74659;BME280;63186;51.204;6.536;2023-02-01T00:21:45;101623.56;;;4.73;100.00
74659;BME280;63186;51.204;6.536;2023-02-01T00:24:11;101628.50;;;4.76;100.00
74659;BME280;63186;51.204;6.536;2023-02-01T00:26:39;101632.91;;;4.77;100.00
74659;BME280;63186;51.204;6.536;2023-02-01T00:29:08;101632.56;;;4.73;100.00
74659;BME280;63186;51.204;6.536;2023-02-01T00:31:34;101612.75;;;4.61;100.00
74659;BME280;63186;51.204;6.536;2023-02-01T00:33:59;101624.16;;;4.58;100.00
74659;BME280;63186;51.204;6.536;2023-02-01T00:36:25;101615.69;;;4.38;100.00
74659;BME280;63186;51.204;6.536;2023-02-01T00:38:50;101630.06;;;4.33;100.00
74659;BME280;63186;51.204;6.536;2023-02-01T00:41:17;101620.69;;;4.29;100.00
74659;BME280;63186;51.204;6.536;2023-02-01T00:43:44;101611.38;;;4.25;100.00
74659;BME280;63186;51.204;6.536;2023-02-01T00:46:10;101607.16;;;4.17;100.00
74659;BME280;63186;51.204;6.536;2023-02-01T00:48:36;101601.28;;;4.08;100.00
74659;BME280;63186;51.204;6.536;2023-02-01T00:51:04;101588.56;;;3.97;100.00
74659;BME280;63186;51.204;6.536;2023-02-01T00:53:30;101584.69;;;3.93;100.00
74659;BME280;63186;51.204;6.536;2023-02-01T00:55:56;101559.28;;;3.88;100.00
74659;BME280;63186;51.204;6.536;2023-02-01T00:58:22;101562.81;;;3.88;100.00
74659;BME280;63186;51.204;6.536;2023-02-01T01:00:54;101578.59;;;3.86;100.00
74659;BME280;63186;51.204;6.536;2023-02-01T01:03:21;101593.59;;;3.89;100.00
74659;BME280;63186;51.204;6.536;2023-02-01T01:05:48;101586.34;;;3.94;100.00
74659;BME280;63186;51.204;6.536;2023-02-01T01:08:14;101591.38;;;4.02;100.00
74659;BME280;63186;51.204;6.536;2023-02-01T01:10:39;101597.44;;;4.04;99.37
74659;BME280;63186;51.204;6.536;2023-02-01T01:13:05;101602.88;;;4.04;100.00
74659;BME280;63186;51.204;6.536;2023-02-01T01:15:30;101606.59;;;3.98;98.71
74659;BME280;63186;51.204;6.536;2023-02-01T01:17:56;101620.94;;;3.94;100.00
74659;BME280;63186;51.204;6.536;2023-02-01T01:20:21;101625.13;;;3.85;100.00
74659;BME280;63186;51.204;6.536;2023-02-01T01:22:47;101632.03;;;3.75;100.00
74659;BME280;63186;51.204;6.536;2023-02-01T01:25:13;101613.38;;;3.67;100.00
74659;BME280;63186;51.204;6.536;2023-02-01T01:27:38;101622.84;;;3.65;100.00
74659;BME280;63186;51.204;6.536;2023-02-01T01:30:04;101622.28;;;3.63;100.00
74659;BME280;63186;51.204;6.536;2023-02-01T01:32:29;101620.06;;;3.60;100.00
74659;BME280;63186;51.204;6.536;2023-02-01T01:34:55;101614.59;;;3.60;100.00
74659;BME280;63186;51.204;6.536;2023-02-01T01:37:20;101620.06;;;3.60;100.00
74659;BME280;63186;51.204;6.536;2023-02-01T01:39:45;101632.84;;;3.59;100.00
74659;BME280;63186;51.204;6.536;2023-02-01T01:42:11;101618.16;;;3.60;100.00
74659;BME280;63186;51.204;6.536;2023-02-01T01:45:00;101631.88;;;3.65;99.60
74659;BME280;63186;51.204;6.536;2023-02-01T01:47:30;101616.44;;;3.71;99.40
74659;BME280;63186;51.204;6.536;2023-02-01T01:49:58;101610.16;;;3.70;98.79
74659;BME280;63186;51.204;6.536;2023-02-01T01:52:23;101599.75;;;3.67;98.05
74659;BME280;63186;51.204;6.536;2023-02-01T01:54:51;101589.13;;;3.66;98.03
74659;BME280;63186;51.204;6.536;2023-02-01T01:57:21;101595.16;;;3.68;97.06
74659;BME280;63186;51.204;6.536;2023-02-01T01:59:50;101591.75;;;3.61;98.88
74659;BME280;63186;51.204;6.536;2023-02-01T02:02:18;101594.00;;;3.52;98.55
74659;BME280;63186;51.204;6.536;2023-02-01T02:04:43;101585.09;;;3.40;98.19
74659;BME280;63186;51.204;6.536;2023-02-01T02:07:11;101594.09;;;3.40;99.36
74659;BME280;63186;51.204;6.536;2023-02-01T02:09:39;101582.03;;;3.36;98.34
74659;BME280;63186;51.204;6.536;2023-02-01T02:12:05;101591.25;;;3.35;99.06
74659;BME280;63186;51.204;6.536;2023-02-01T02:14:31;101579.81;;;3.33;98.65
74659;BME280;63186;51.204;6.536;2023-02-01T02:22:48;101581.63;;;3.44;98.17
74659;BME280;63186;51.204;6.536;2023-02-01T02:30:44;101573.81;;;3.48;97.99
74659;BME280;63186;51.204;6.536;2023-02-01T02:33:22;101573.66;;;3.54;97.84
74659;BME280;63186;51.204;6.536;2023-02-01T02:36:02;101573.56;;;3.49;97.89
74659;BME280;63186;51.204;6.536;2023-02-01T02:38:58;101571.91;;;3.48;97.86
74659;BME280;63186;51.204;6.536;2023-02-01T02:41:54;101556.81;;;3.41;98.40
74659;BME280;63186;51.204;6.536;2023-02-01T02:44:57;101559.28;;;3.42;98.58
74659;BME280;63186;51.204;6.536;2023-02-01T02:47:52;101545.91;;;3.41;98.74
74659;BME280;63186;51.204;6.536;2023-02-01T02:50:38;101544.94;;;3.47;98.33
74659;BME280;63186;51.204;6.536;2023-02-01T02:53:32;101555.34;;;3.50;98.25
74659;BME280;63186;51.204;6.536;2023-02-01T02:56:20;101557.47;;;3.48;98.46
74659;BME280;63186;51.204;6.536;2023-02-01T02:59:07;101549.78;;;3.45;98.76
74659;BME280;63186;51.204;6.536;2023-02-01T03:01:52;101548.50;;;3.47;98.55
74659;BME280;63186;51.204;6.536;2023-02-01T03:04:37;101558.63;;;3.52;98.88
74659;BME280;63186;51.204;6.536;2023-02-01T03:13:06;101553.06;;;3.59;98.77
74659;BME280;63186;51.204;6.536;2023-02-01T03:15:40;101550.19;;;3.65;97.95
74659;BME280;63186;51.204;6.536;2023-02-01T03:18:14;101539.59;;;3.69;97.71
74659;BME280;63186;51.204;6.536;2023-02-01T03:20:44;101537.38;;;3.66;97.62
74659;BME280;63186;51.204;6.536;2023-02-01T03:23:13;101528.97;;;3.67;97.62
74659;BME280;63186;51.204;6.536;2023-02-01T03:25:41;101528.25;;;3.72;97.45
74659;BME280;63186;51.204;6.536;2023-02-01T03:28:08;101526.75;;;3.81;96.99
74659;BME280;63186;51.204;6.536;2023-02-01T03:30:37;101538.13;;;3.95;96.35
74659;BME280;63186;51.204;6.536;2023-02-01T03:33:06;101530.38;;;4.03;95.36
74659;BME280;63186;51.204;6.536;2023-02-01T03:35:57;101529.63;;;4.08;95.05
74659;BME280;63186;51.204;6.536;2023-02-01T03:41:35;101522.19;;;4.20;94.53
74659;BME280;63186;51.204;6.536;2023-02-01T03:44:29;101516.75;;;4.20;94.58
74659;BME280;63186;51.204;6.536;2023-02-01T03:47:04;101521.28;;;4.15;94.81
74659;BME280;63186;51.204;6.536;2023-02-01T03:49:35;101530.28;;;4.15;94.71
74659;BME280;63186;51.204;6.536;2023-02-01T03:52:05;101522.84;;;4.11;95.25
74659;BME280;63186;51.204;6.536;2023-02-01T03:54:32;101533.09;;;4.20;94.07
74659;BME280;63186;51.204;6.536;2023-02-01T03:57:04;101528.53;;;4.26;94.41
74659;BME280;63186;51.204;6.536;2023-02-01T03:59:30;101535.63;;;4.27;94.60
74659;BME280;63186;51.204;6.536;2023-02-01T04:01:55;101524.66;;;4.22;94.60
74659;BME280;63186;51.204;6.536;2023-02-01T04:04:20;101525.25;;;4.24;95.05
74659;BME280;63186;51.204;6.536;2023-02-01T04:06:50;101518.72;;;4.25;94.49
74659;BME280;63186;51.204;6.536;2023-02-01T04:09:16;101525.25;;;4.24;94.70
74659;BME280;63186;51.204;6.536;2023-02-01T04:11:41;101508.56;;;4.20;94.70
74659;BME280;63186;51.204;6.536;2023-02-01T04:14:07;101526.06;;;4.24;94.81
74659;BME280;63186;51.204;6.536;2023-02-01T04:16:32;101515.09;;;4.19;95.20
74659;BME280;63186;51.204;6.536;2023-02-01T04:18:58;101492.69;;;4.17;94.49
74659;BME280;63186;51.204;6.536;2023-02-01T04:21:25;101502.28;;;4.20;94.29
74659;BME280;63186;51.204;6.536;2023-02-01T04:23:50;101491.81;;;4.12;94.77
74659;BME280;63186;51.204;6.536;2023-02-01T04:26:16;101479.13;;;4.00;95.35
74659;BME280;63186;51.204;6.536;2023-02-01T04:28:42;101477.81;;;3.86;95.53
74659;BME280;63186;51.204;6.536;2023-02-01T04:31:07;101475.41;;;3.73;96.56
74659;BME280;63186;51.204;6.536;2023-02-01T04:33:32;101481.94;;;3.72;96.07
74659;BME280;63186;51.204;6.536;2023-02-01T04:35:58;101472.63;;;3.68;96.37
74659;BME280;63186;51.204;6.536;2023-02-01T04:38:23;101494.53;;;3.78;95.92
74659;BME280;63186;51.204;6.536;2023-02-01T04:40:48;101496.13;;;3.74;96.14
74659;BME280;63186;51.204;6.536;2023-02-01T04:43:14;101487.06;;;3.68;96.20
74659;BME280;63186;51.204;6.536;2023-02-01T04:45:40;101483.59;;;3.73;95.58
74659;BME280;63186;51.204;6.536;2023-02-01T04:48:05;101482.50;;;3.74;95.28
74659;BME280;63186;51.204;6.536;2023-02-01T04:50:30;101480.63;;;3.74;95.06
74659;BME280;63186;51.204;6.536;2023-02-01T04:52:56;101494.41;;;3.68;95.74
74659;BME280;63186;51.204;6.536;2023-02-01T04:55:21;101497.75;;;3.58;96.18
74659;BME280;63186;51.204;6.536;2023-02-01T04:57:46;101503.81;;;3.60;96.06
74659;BME280;63186;51.204;6.536;2023-02-01T05:00:12;101497.03;;;3.63;95.78
74659;BME280;63186;51.204;6.536;2023-02-01T05:02:38;101516.19;;;3.68;95.80
74659;BME280;63186;51.204;6.536;2023-02-01T05:05:04;101513.47;;;3.68;95.76
74659;BME280;63186;51.204;6.536;2023-02-01T05:07:29;101515.00;;;3.64;95.84
74659;BME280;63186;51.204;6.536;2023-02-01T05:09:54;101504.13;;;3.64;95.61
74659;BME280;63186;51.204;6.536;2023-02-01T05:12:19;101502.16;;;3.59;95.62
74659;BME280;63186;51.204;6.536;2023-02-01T05:15:04;101495.13;;;3.63;95.52
74659;BME280;63186;51.204;6.536;2023-02-01T05:17:29;101510.88;;;3.61;95.55
74659;BME280;63186;51.204;6.536;2023-02-01T05:19:55;101512.22;;;3.59;95.77
74659;BME280;63186;51.204;6.536;2023-02-01T05:22:20;101519.53;;;3.58;95.96
74659;BME280;63186;51.204;6.536;2023-02-01T05:24:45;101514.34;;;3.57;95.70
74659;BME280;63186;51.204;6.536;2023-02-01T05:27:11;101516.16;;;3.51;96.00
74659;BME280;63186;51.204;6.536;2023-02-01T05:29:36;101507.91;;;3.46;96.50
74659;BME280;63186;51.204;6.536;2023-02-01T05:32:01;101512.50;;;3.45;96.17
74659;BME280;63186;51.204;6.536;2023-02-01T05:34:27;101502.78;;;3.49;95.94
74659;BME280;63186;51.204;6.536;2023-02-01T05:36:52;101482.19;;;3.53;95.73
74659;BME280;63186;51.204;6.536;2023-02-01T05:39:17;101492.81;;;3.55;95.64
74659;BME280;63186;51.204;6.536;2023-02-01T05:41:43;101504.94;;;3.47;96.15
74659;BME280;63186;51.204;6.536;2023-02-01T05:44:08;101507.41;;;3.49;96.08
74659;BME280;63186;51.204;6.536;2023-02-01T05:46:37;101500.88;;;3.50;95.93
74659;BME280;63186;51.204;6.536;2023-02-01T05:49:03;101503.13;;;3.53;95.60
74659;BME280;63186;51.204;6.536;2023-02-01T05:51:28;101496.44;;;3.44;96.08
74659;BME280;63186;51.204;6.536;2023-02-01T05:53:53;101491.66;;;3.51;95.60
74659;BME280;63186;51.204;6.536;2023-02-01T05:56:19;101519.78;;;3.57;95.72
74659;BME280;63186;51.204;6.536;2023-02-01T05:58:44;101514.25;;;3.51;95.70
74659;BME280;63186;51.204;6.536;2023-02-01T06:01:09;101512.94;;;3.54;95.65
74659;BME280;63186;51.204;6.536;2023-02-01T06:03:35;101503.59;;;3.50;95.80
74659;BME280;63186;51.204;6.536;2023-02-01T06:06:00;101492.06;;;3.43;96.03
74659;BME280;63186;51.204;6.536;2023-02-01T06:08:27;101488.50;;;3.42;96.11
74659;BME280;63186;51.204;6.536;2023-02-01T06:11:04;101495.84;;;3.42;95.89
74659;BME280;63186;51.204;6.536;2023-02-01T06:13:30;101491.38;;;3.36;96.23
74659;BME280;63186;51.204;6.536;2023-02-01T06:15:56;101498.56;;;3.42;96.18
74659;BME280;63186;51.204;6.536;2023-02-01T06:18:25;101493.22;;;3.47;96.32
74659;BME280;63186;51.204;6.536;2023-02-01T06:20:57;101497.53;;;3.60;95.62
74659;BME280;63186;51.204;6.536;2023-02-01T06:23:25;101485.66;;;3.66;95.16
74659;BME280;63186;51.204;6.536;2023-02-01T06:25:51;101501.22;;;3.70;95.22
74659;BME280;63186;51.204;6.536;2023-02-01T06:28:17;101510.88;;;3.78;95.10
74659;BME280;63186;51.204;6.536;2023-02-01T06:30:42;101521.69;;;3.90;94.42
74659;BME280;63186;51.204;6.536;2023-02-01T06:33:12;101508.44;;;3.93;94.40
74659;BME280;63186;51.204;6.536;2023-02-01T06:35:38;101515.59;;;3.99;93.64
74659;BME280;63186;51.204;6.536;2023-02-01T06:38:04;101520.88;;;4.06;93.87
74659;BME280;63186;51.204;6.536;2023-02-01T06:40:29;101514.63;;;4.05;93.74
74659;BME280;63186;51.204;6.536;2023-02-01T06:42:54;101514.00;;;4.03;94.15
74659;BME280;63186;51.204;6.536;2023-02-01T06:45:19;101519.00;;;4.06;93.97
74659;BME280;63186;51.204;6.536;2023-02-01T06:47:45;101514.19;;;4.14;93.43
74659;BME280;63186;51.204;6.536;2023-02-01T06:50:10;101522.66;;;4.17;93.01
74659;BME280;63186;51.204;6.536;2023-02-01T06:52:35;101505.75;;;4.15;93.27
74659;BME280;63186;51.204;6.536;2023-02-01T06:55:01;101506.00;;;4.14;93.23
74659;BME280;63186;51.204;6.536;2023-02-01T06:57:26;101516.41;;;4.17;93.48
74659;BME280;63186;51.204;6.536;2023-02-01T06:59:55;101524.19;;;4.25;93.43
74659;BME280;63186;51.204;6.536;2023-02-01T07:02:20;101519.53;;;4.25;92.85
74659;BME280;63186;51.204;6.536;2023-02-01T07:04:46;101519.53;;;4.25;93.05
74659;BME280;63186;51.204;6.536;2023-02-01T07:07:12;101533.25;;;4.30;92.93
74659;BME280;63186;51.204;6.536;2023-02-01T07:09:37;101529.69;;;4.30;92.70
74659;BME280;63186;51.204;6.536;2023-02-01T07:12:03;101534.38;;;4.34;92.79
74659;BME280;63186;51.204;6.536;2023-02-01T07:14:28;101522.66;;;4.34;92.95
74659;BME280;63186;51.204;6.536;2023-02-01T07:16:54;101529.50;;;4.36;92.77
74659;BME280;63186;51.204;6.536;2023-02-01T07:19:19;101537.69;;;4.36;93.09
74659;BME280;63186;51.204;6.536;2023-02-01T07:21:44;101536.03;;;4.35;92.61
74659;BME280;63186;51.204;6.536;2023-02-01T07:24:09;101531.22;;;4.43;92.49
74659;BME280;63186;51.204;6.536;2023-02-01T07:26:35;101523.63;;;4.45;92.26
74659;BME280;63186;51.204;6.536;2023-02-01T07:29:00;101519.75;;;4.41;92.38
74659;BME280;63186;51.204;6.536;2023-02-01T07:31:25;101538.84;;;4.41;92.87
74659;BME280;63186;51.204;6.536;2023-02-01T07:33:53;101512.66;;;4.40;92.66
74659;BME280;63186;51.204;6.536;2023-02-01T07:36:21;101533.13;;;4.42;92.47
74659;BME280;63186;51.204;6.536;2023-02-01T07:38:46;101541.38;;;4.47;91.96
74659;BME280;63186;51.204;6.536;2023-02-01T07:41:16;101546.84;;;4.47;92.11
74659;BME280;63186;51.204;6.536;2023-02-01T07:43:42;101547.91;;;4.46;92.46
74659;BME280;63186;51.204;6.536;2023-02-01T07:46:09;101534.78;;;4.43;91.79
74659;BME280;63186;51.204;6.536;2023-02-01T07:48:35;101533.78;;;4.49;91.53
74659;BME280;63186;51.204;6.536;2023-02-01T07:51:03;101551.28;;;4.53;91.50
74659;BME280;63186;51.204;6.536;2023-02-01T07:53:30;101543.09;;;4.53;91.43
74659;BME280;63186;51.204;6.536;2023-02-01T07:55:55;101548.91;;;4.57;91.00
74659;BME280;63186;51.204;6.536;2023-02-01T07:58:24;101548.38;;;4.60;91.22
74659;BME280;63186;51.204;6.536;2023-02-01T08:00:50;101556.00;;;4.58;91.25
74659;BME280;63186;51.204;6.536;2023-02-01T08:03:33;101544.75;;;4.54;91.75
74659;BME280;63186;51.204;6.536;2023-02-01T08:05:59;101543.66;;;4.55;91.93
74659;BME280;63186;51.204;6.536;2023-02-01T08:08:24;101544.50;;;4.56;91.44
74659;BME280;63186;51.204;6.536;2023-02-01T08:10:49;101564.19;;;4.58;91.62
74659;BME280;63186;51.204;6.536;2023-02-01T08:13:14;101553.00;;;4.59;91.12
74659;BME280;63186;51.204;6.536;2023-02-01T08:15:40;101555.22;;;4.62;90.88
74659;BME280;63186;51.204;6.536;2023-02-01T08:18:05;101563.09;;;4.59;91.15
74659;BME280;63186;51.204;6.536;2023-02-01T08:20:31;101557.91;;;4.57;91.36
74659;BME280;63186;51.204;6.536;2023-02-01T08:22:56;101568.84;;;4.62;91.29
74659;BME280;63186;51.204;6.536;2023-02-01T08:25:22;101555.81;;;4.65;90.97
74659;BME280;63186;51.204;6.536;2023-02-01T08:27:48;101573.81;;;4.66;91.27
74659;BME280;63186;51.204;6.536;2023-02-01T08:30:13;101569.44;;;4.65;91.55
74659;BME280;63186;51.204;6.536;2023-02-01T08:32:39;101573.56;;;4.67;90.82
74659;BME280;63186;51.204;6.536;2023-02-01T08:35:04;101567.44;;;4.77;90.43
74659;BME280;63186;51.204;6.536;2023-02-01T08:37:30;101573.53;;;4.84;90.33
74659;BME280;63186;51.204;6.536;2023-02-01T08:39:55;101595.19;;;4.90;89.56
74659;BME280;63186;51.204;6.536;2023-02-01T08:42:21;101596.31;;;4.95;90.14
74659;BME280;63186;51.204;6.536;2023-02-01T08:45:05;101605.25;;;4.90;89.09
74659;BME280;63186;51.204;6.536;2023-02-01T08:47:31;101585.34;;;4.89;88.80
74659;BME280;63186;51.204;6.536;2023-02-01T08:49:56;101604.81;;;4.98;89.42
74659;BME280;63186;51.204;6.536;2023-02-01T08:52:21;101598.34;;;5.04;88.97
74659;BME280;63186;51.204;6.536;2023-02-01T08:54:47;101592.44;;;5.12;88.75
74659;BME280;63186;51.204;6.536;2023-02-01T08:57:12;101605.00;;;5.13;89.19
74659;BME280;63186;51.204;6.536;2023-02-01T08:59:38;101593.19;;;5.08;89.49
74659;BME280;63186;51.204;6.536;2023-02-01T09:02:03;101584.44;;;5.06;89.04
74659;BME280;63186;51.204;6.536;2023-02-01T09:04:28;101581.72;;;5.06;89.30
74659;BME280;63186;51.204;6.536;2023-02-01T09:06:54;101584.44;;;5.06;89.65
74659;BME280;63186;51.204;6.536;2023-02-01T09:09:21;101584.97;;;5.03;88.51
74659;BME280;63186;51.204;6.536;2023-02-01T09:11:46;101587.94;;;5.01;88.67
74659;BME280;63186;51.204;6.536;2023-02-01T09:14:11;101583.81;;;4.99;89.39
74659;BME280;63186;51.204;6.536;2023-02-01T09:16:37;101564.78;;;5.04;88.75
74659;BME280;63186;51.204;6.536;2023-02-01T09:19:02;101567.31;;;5.10;88.83
74659;BME280;63186;51.204;6.536;2023-02-01T09:21:28;101573.47;;;5.23;88.69
74659;BME280;63186;51.204;6.536;2023-02-01T09:26:21;101556.28;;;5.49;87.83
74659;BME280;63186;51.204;6.536;2023-02-01T09:28:46;101581.88;;;5.43;87.60
74659;BME280;63186;51.204;6.536;2023-02-01T09:31:11;101572.53;;;5.39;87.49
74659;BME280;63186;51.204;6.536;2023-02-01T09:33:37;101572.06;;;5.42;87.18
74659;BME280;63186;51.204;6.536;2023-02-01T09:36:04;101573.16;;;5.46;87.15
74659;BME280;63186;51.204;6.536;2023-02-01T09:38:30;101576.22;;;5.50;87.29
74659;BME280;63186;51.204;6.536;2023-02-01T09:40:57;101561.06;;;5.37;87.19
74659;BME280;63186;51.204;6.536;2023-02-01T09:43:45;101581.50;;;5.34;87.21
74659;BME280;63186;51.204;6.536;2023-02-01T09:46:21;101586.34;;;5.27;88.29
74659;BME280;63186;51.204;6.536;2023-02-01T09:48:49;101579.75;;;5.23;88.18
74659;BME280;63186;51.204;6.536;2023-02-01T09:51:24;101571.31;;;5.25;88.51
74659;BME280;63186;51.204;6.536;2023-02-01T09:54:09;101561.63;;;5.39;87.71
74659;BME280;63186;51.204;6.536;2023-02-01T10:01:42;101565.56;;;5.48;87.47
74659;BME280;63186;51.204;6.536;2023-02-01T10:04:11;101557.38;;;5.48;86.44
74659;BME280;63186;51.204;6.536;2023-02-01T10:26:25;101561.41;;;7.67;75.38
74659;BME280;63186;51.204;6.536;2023-02-01T10:28:56;101560.03;;;7.59;76.63
74659;BME280;63186;51.204;6.536;2023-02-01T10:31:26;101545.16;;;7.25;78.21
74659;BME280;63186;51.204;6.536;2023-02-01T10:34:07;101542.03;;;6.96;78.80
74659;BME280;63186;51.204;6.536;2023-02-01T10:37:00;101547.22;;;6.87;79.56
74659;BME280;63186;51.204;6.536;2023-02-01T10:39:25;101530.00;;;6.97;78.15
74659;BME280;63186;51.204;6.536;2023-02-01T10:41:51;101534.34;;;6.88;78.37
74659;BME280;63186;51.204;6.536;2023-02-01T10:44:20;101546.09;;;6.83;78.73
74659;BME280;63186;51.204;6.536;2023-02-01T10:46:47;101541.44;;;6.78;79.84
74659;BME280;63186;51.204;6.536;2023-02-01T10:52:21;101543.75;;;6.55;79.60
74659;BME280;63186;51.204;6.536;2023-02-01T10:54:50;101548.09;;;6.50;80.61
74659;BME280;63186;51.204;6.536;2023-02-01T10:57:24;101552.25;;;6.53;79.79
74659;BME280;63186;51.204;6.536;2023-02-01T10:59:55;101533.56;;;6.45;79.69
74659;BME280;63186;51.204;6.536;2023-02-01T11:02:31;101551.34;;;6.42;80.08
74659;BME280;63186;51.204;6.536;2023-02-01T11:05:08;101528.09;;;6.45;80.19
74659;BME280;63186;51.204;6.536;2023-02-01T11:07:35;101533.09;;;6.53;80.11
74659;BME280;63186;51.204;6.536;2023-02-01T11:10:01;101528.75;;;6.62;79.26
74659;BME280;63186;51.204;6.536;2023-02-01T11:12:32;101515.72;;;6.79;79.25
74659;BME280;63186;51.204;6.536;2023-02-01T11:15:13;101520.63;;;6.83;78.62
74659;BME280;63186;51.204;6.536;2023-02-01T11:17:42;101539.28;;;6.86;79.54
74659;BME280;63186;51.204;6.536;2023-02-01T11:20:20;101527.72;;;6.73;78.98
74659;BME280;63186;51.204;6.536;2023-02-01T11:22:54;101530.97;;;6.65;79.21
74659;BME280;63186;51.204;6.536;2023-02-01T11:25:20;101503.84;;;6.59;79.07
74659;BME280;63186;51.204;6.536;2023-02-01T11:27:47;101519.16;;;6.55;79.24
74659;BME280;63186;51.204;6.536;2023-02-01T11:30:17;101489.03;;;6.49;79.49
74659;BME280;63186;51.204;6.536;2023-02-01T11:32:46;101503.47;;;6.45;79.42
74659;BME280;63186;51.204;6.536;2023-02-01T11:35:17;101502.41;;;6.46;78.43
74659;BME280;63186;51.204;6.536;2023-02-01T11:37:44;101505.16;;;6.46;79.36
74659;BME280;63186;51.204;6.536;2023-02-01T11:42:59;101494.75;;;6.48;79.06
74659;BME280;63186;51.204;6.536;2023-02-01T11:45:28;101484.06;;;6.41;79.06
74659;BME280;63186;51.204;6.536;2023-02-01T11:47:56;101495.81;;;6.42;79.04
74659;BME280;63186;51.204;6.536;2023-02-01T12:06:55;101458.91;;;6.44;79.08
74659;BME280;63186;51.204;6.536;2023-02-01T12:23:31;101471.75;;;6.44;80.15
74659;BME280;63186;51.204;6.536;2023-02-01T12:29:32;101444.13;;;6.40;80.24
74659;BME280;63186;51.204;6.536;2023-02-01T12:31:59;101467.94;;;6.40;80.66
74659;BME280;63186;51.204;6.536;2023-02-01T12:35:12;101456.69;;;6.36;80.48
74659;BME280;63186;51.204;6.536;2023-02-01T12:37:57;101456.69;;;6.36;81.08
74659;BME280;63186;51.204;6.536;2023-02-01T12:43:02;101455.91;;;6.41;81.78
74659;BME280;63186;51.204;6.536;2023-02-01T12:45:42;101438.66;;;6.40;81.32
74659;BME280;63186;51.204;6.536;2023-02-01T12:48:40;101445.22;;;6.44;81.32
74659;BME280;63186;51.204;6.536;2023-02-01T12:51:13;101447.72;;;6.46;81.10
74659;BME280;63186;51.204;6.536;2023-02-01T12:53:55;101436.78;;;6.46;80.82
74659;BME280;63186;51.204;6.536;2023-02-01T12:56:37;101439.78;;;6.49;80.99
74659;BME280;63186;51.204;6.536;2023-02-01T12:59:26;101429.38;;;6.51;79.59
74659;BME280;63186;51.204;6.536;2023-02-01T13:04:36;101433.00;;;6.62;79.15
74659;BME280;63186;51.204;6.536;2023-02-01T13:07:09;101436.28;;;6.59;79.53
74659;BME280;63186;51.204;6.536;2023-02-01T13:09:48;101414.91;;;6.56;79.77
74659;BME280;63186;51.204;6.536;2023-02-01T13:12:23;101425.88;;;6.56;80.15
74659;BME280;63186;51.204;6.536;2023-02-01T13:14:55;101427.78;;;6.56;80.16
74659;BME280;63186;51.204;6.536;2023-02-01T13:17:24;101421.47;;;6.55;80.18
74659;BME280;63186;51.204;6.536;2023-02-01T13:22:44;101423.66;;;6.58;79.76
74659;BME280;63186;51.204;6.536;2023-02-01T13:25:31;101420.13;;;6.58;80.44
74659;BME280;63186;51.204;6.536;2023-02-01T13:28:04;101423.94;;;6.57;79.31
74659;BME280;63186;51.204;6.536;2023-02-01T13:30:45;101430.81;;;6.59;79.89
74659;BME280;63186;51.204;6.536;2023-02-01T13:33:27;101422.34;;;6.61;79.70
74659;BME280;63186;51.204;6.536;2023-02-01T13:36:22;101422.06;;;6.62;79.73
74659;BME280;63186;51.204;6.536;2023-02-01T13:41:50;101418.81;;;6.65;79.35
74659;BME280;63186;51.204;6.536;2023-02-01T13:44:27;101417.69;;;6.66;78.44
74659;BME280;63186;51.204;6.536;2023-02-01T13:46:57;101431.94;;;6.68;78.98
74659;BME280;63186;51.204;6.536;2023-02-01T13:49:26;101423.47;;;6.75;77.47
74659;BME280;63186;51.204;6.536;2023-02-01T13:51:55;101423.19;;;6.76;78.24
74659;BME280;63186;51.204;6.536;2023-02-01T13:54:36;101420.47;;;6.76;77.52
74659;BME280;63186;51.204;6.536;2023-02-01T13:57:04;101428.41;;;6.83;77.59
74659;BME280;63186;51.204;6.536;2023-02-01T14:05:10;101438.00;;;6.91;77.28
74659;BME280;63186;51.204;6.536;2023-02-01T14:07:36;101433.63;;;6.85;77.55
74659;BME280;63186;51.204;6.536;2023-02-01T14:13:13;101428.72;;;6.87;76.63
74659;BME280;63186;51.204;6.536;2023-02-01T14:15:39;101433.63;;;6.90;77.06
74659;BME280;63186;51.204;6.536;2023-02-01T14:29:31;101442.94;;;6.89;76.83
74659;BME280;63186;51.204;6.536;2023-02-01T14:47:44;101457.75;;;6.98;76.89
74659;BME280;63186;51.204;6.536;2023-02-01T14:52:45;101459.91;;;6.91;77.33
74659;BME280;63186;51.204;6.536;2023-02-01T14:55:16;101458.84;;;6.92;76.68
74659;BME280;63186;51.204;6.536;2023-02-01T14:57:45;101460.47;;;6.93;77.50
74659;BME280;63186;51.204;6.536;2023-02-01T15:00:25;101470.03;;;6.90;77.47
74659;BME280;63186;51.204;6.536;2023-02-01T15:02:52;101451.16;;;6.89;77.47
74659;BME280;63186;51.204;6.536;2023-02-01T15:05:25;101469.78;;;6.92;77.39
74659;BME280;63186;51.204;6.536;2023-02-01T15:07:51;101438.00;;;6.91;77.75
74659;BME280;63186;51.204;6.536;2023-02-01T15:10:18;101455.28;;;6.91;77.42
74659;BME280;63186;51.204;6.536;2023-02-01T15:12:46;101478.25;;;6.95;77.80
74659;BME280;63186;51.204;6.536;2023-02-01T15:17:55;101473.03;;;6.89;77.81
74659;BME280;63186;51.204;6.536;2023-02-01T15:20:24;101478.78;;;6.87;78.06
74659;BME280;63186;51.204;6.536;2023-02-01T15:22:59;101479.06;;;6.86;78.49
74659;BME280;63186;51.204;6.536;2023-02-01T15:25:28;101478.78;;;6.82;78.60
74659;BME280;63186;51.204;6.536;2023-02-01T15:27:53;101465.09;;;6.82;78.47
74659;BME280;63186;51.204;6.536;2023-02-01T15:30:28;101482.91;;;6.85;78.16
74659;BME280;63186;51.204;6.536;2023-02-01T15:35:34;101477.66;;;6.83;78.84